createdAt,value
2023-03-17T00:01:44.843Z,7.97
2023-03-17T00:04:13.048Z,8.07
2023-03-17T00:06:42.548Z,5.63
2023-03-17T00:09:14.707Z,8.10
2023-03-17T00:11:43.064Z,7.97
2023-03-17T00:14:10.843Z,8.75
2023-03-17T00:16:40.590Z,7.32
2023-03-17T00:19:08.441Z,9.15
2023-03-17T00:21:36.691Z,7.97
2023-03-17T00:24:07.353Z,10.10
2023-03-17T00:26:35.126Z,10.38
2023-03-17T00:29:02.865Z,10.20
2023-03-17T00:31:31.599Z,8.73
2023-03-17T00:34:00.503Z,7.85
2023-03-17T00:36:30.700Z,8.95
2023-03-17T00:38:58.887Z,12.25
2023-03-17T00:41:29.551Z,7.18
2023-03-17T00:43:57.687Z,9.23
2023-03-17T00:46:28.756Z,9.25
2023-03-17T00:48:56.737Z,8.10
2023-03-17T00:51:24.547Z,8.13
2023-03-17T00:53:52.806Z,6.65
2023-03-17T00:56:21.812Z,6.03
2023-03-17T00:58:50.890Z,8.60
2023-03-17T01:01:19.858Z,8.85
2023-03-17T01:03:49.648Z,8.38
2023-03-17T01:06:17.925Z,7.25
2023-03-17T01:08:46.570Z,7.53
2023-03-17T01:11:17.773Z,9.23
2023-03-17T01:13:45.741Z,8.80
2023-03-17T01:16:15.561Z,6.57
2023-03-17T01:18:44.010Z,8.63
2023-03-17T01:21:12.648Z,7.13
2023-03-17T01:23:40.398Z,10.20
2023-03-17T01:26:08.064Z,7.55
2023-03-17T01:28:36.065Z,8.38
2023-03-17T01:31:05.025Z,9.48
2023-03-17T01:33:35.176Z,9.75
2023-03-17T01:36:03.088Z,9.10
2023-03-17T01:38:31.266Z,8.57
2023-03-17T01:40:59.562Z,7.22
2023-03-17T01:43:29.549Z,7.47
2023-03-17T01:46:20.756Z,8.18
2023-03-17T01:48:54.222Z,7.50
2023-03-17T01:51:27.517Z,9.90
2023-03-17T01:53:56.218Z,7.28
2023-03-17T01:56:24.699Z,8.88
2023-03-17T01:58:56.145Z,7.22
2023-03-17T02:01:30.697Z,7.22
2023-03-17T02:04:00.884Z,8.65
2023-03-17T02:06:29.534Z,6.22
2023-03-17T02:08:57.427Z,8.85
2023-03-17T02:11:25.321Z,6.57
2023-03-17T02:13:53.661Z,10.52
2023-03-17T02:16:22.346Z,7.22
2023-03-17T02:18:50.082Z,7.43
2023-03-17T02:21:38.313Z,7.55
2023-03-17T02:24:10.719Z,15.63
2023-03-17T02:26:39.542Z,7.15
2023-03-17T02:29:07.376Z,9.48
2023-03-17T02:31:35.783Z,7.80
2023-03-17T02:34:03.703Z,7.18
2023-03-17T02:36:32.836Z,7.70
2023-03-17T02:39:01.045Z,8.55
2023-03-17T02:41:29.324Z,6.50
2023-03-17T02:43:57.106Z,7.78
2023-03-17T02:46:24.915Z,7.43
2023-03-17T02:48:52.787Z,7.32
2023-03-17T02:51:20.585Z,7.60
2023-03-17T02:53:49.669Z,7.30
2023-03-17T02:56:17.420Z,9.85
2023-03-17T02:58:45.487Z,6.82
2023-03-17T03:01:14.151Z,6.57
2023-03-17T03:03:41.956Z,7.47
2023-03-17T03:06:09.796Z,6.15
2023-03-17T03:08:37.805Z,7.35
2023-03-17T03:11:07.121Z,6.50
2023-03-17T03:13:34.988Z,7.00
2023-03-17T03:16:02.680Z,7.68
2023-03-17T03:18:30.565Z,7.38
2023-03-17T03:20:58.251Z,7.78
2023-03-17T03:23:26.003Z,7.30
2023-03-17T03:25:53.766Z,7.85
2023-03-17T03:28:23.063Z,8.70
2023-03-17T03:30:51.145Z,8.63
2023-03-17T03:33:19.110Z,8.45
2023-03-17T03:35:46.866Z,7.00
2023-03-17T03:38:14.694Z,10.88
2023-03-17T03:40:42.414Z,7.28
2023-03-17T03:43:21.867Z,8.50
2023-03-17T03:45:52.543Z,6.40
2023-03-17T03:48:20.475Z,6.78
2023-03-17T03:50:48.359Z,7.60
2023-03-17T03:53:16.471Z,6.78
2023-03-17T03:55:44.282Z,6.75
2023-03-17T03:58:12.336Z,7.70
2023-03-17T04:00:40.655Z,7.55
2023-03-17T04:03:09.841Z,8.10
2023-03-17T04:05:37.734Z,8.05
2023-03-17T04:08:06.720Z,7.22
2023-03-17T04:10:35.082Z,8.43
2023-03-17T04:13:03.001Z,10.35
2023-03-17T04:15:30.732Z,6.80
2023-03-17T04:17:58.497Z,8.77
2023-03-17T04:20:27.756Z,7.32
2023-03-17T04:22:55.532Z,9.93
2023-03-17T04:25:23.307Z,10.00
2023-03-17T04:27:51.047Z,8.77
2023-03-17T04:30:19.116Z,8.65
2023-03-17T04:32:47.626Z,6.68
2023-03-17T04:35:17.120Z,9.05
2023-03-17T04:37:46.736Z,9.35
2023-03-17T04:40:15.607Z,7.55
2023-03-17T04:42:43.385Z,9.52
2023-03-17T04:45:14.072Z,7.45
2023-03-17T04:47:42.127Z,8.02
2023-03-17T04:50:11.447Z,8.73
2023-03-17T04:52:39.203Z,7.47
2023-03-17T04:55:09.475Z,8.43
2023-03-17T04:57:37.815Z,12.27
2023-03-17T05:00:07.274Z,8.23
2023-03-17T05:02:35.360Z,7.45
2023-03-17T05:05:03.168Z,7.90
2023-03-17T05:07:33.928Z,8.90
2023-03-17T05:10:02.128Z,7.57
2023-03-17T05:12:31.199Z,9.45
2023-03-17T05:14:58.900Z,7.53
2023-03-17T05:17:26.579Z,7.15
2023-03-17T05:19:54.299Z,7.85
2023-03-17T05:22:22.054Z,9.20
2023-03-17T05:24:49.749Z,8.63
2023-03-17T05:27:17.479Z,7.53
2023-03-17T05:29:46.574Z,9.48
2023-03-17T05:32:14.464Z,8.90
2023-03-17T05:34:42.173Z,10.68
2023-03-17T05:37:10.278Z,8.10
2023-03-17T05:39:38.409Z,8.95
2023-03-17T05:42:06.380Z,6.70
2023-03-17T05:44:34.225Z,10.55
2023-03-17T05:47:03.292Z,10.63
2023-03-17T05:49:31.507Z,8.32
2023-03-17T05:51:59.261Z,9.38
2023-03-17T05:54:27.676Z,10.13
2023-03-17T05:56:55.474Z,7.85
2023-03-17T05:59:23.324Z,8.07
2023-03-17T06:01:51.278Z,9.43
2023-03-17T06:04:20.376Z,7.75
2023-03-17T06:06:48.609Z,9.48
2023-03-17T06:09:18.101Z,8.18
2023-03-17T06:11:45.929Z,9.82
2023-03-17T06:14:14.601Z,6.82
2023-03-17T06:16:42.333Z,9.55
2023-03-17T06:19:10.271Z,8.35
2023-03-17T06:21:39.500Z,10.02
2023-03-17T06:24:08.437Z,7.40
2023-03-17T06:26:37.199Z,15.20
2023-03-17T06:29:05.409Z,10.10
2023-03-17T06:31:33.118Z,11.00
2023-03-17T06:34:00.906Z,15.57
2023-03-17T06:36:28.586Z,12.45
2023-03-17T06:38:57.868Z,9.55
2023-03-17T06:41:25.715Z,10.68
2023-03-17T06:43:53.512Z,9.60
2023-03-17T06:46:21.625Z,7.18
2023-03-17T06:48:49.442Z,9.13
2023-03-17T06:51:17.222Z,39.05
2023-03-17T06:53:44.980Z,33.80
2023-03-17T06:56:28.806Z,13.77
2023-03-17T06:58:57.760Z,15.70
2023-03-17T07:01:25.766Z,12.82
2023-03-17T07:03:53.485Z,8.48
2023-03-17T07:06:23.377Z,10.18
2023-03-17T07:08:52.377Z,11.55
2023-03-17T07:11:23.581Z,7.40
2023-03-17T07:13:51.994Z,9.05
2023-03-17T07:16:21.043Z,11.52
2023-03-17T07:18:50.616Z,13.32
2023-03-17T07:21:18.623Z,20.33
2023-03-17T07:23:46.411Z,16.98
2023-03-17T07:26:14.581Z,13.40
2023-03-17T07:28:44.623Z,13.77
2023-03-17T07:31:14.335Z,14.00
2023-03-17T07:33:42.556Z,15.02
2023-03-17T07:36:10.712Z,13.77
2023-03-17T07:38:38.566Z,17.02
2023-03-17T07:41:09.910Z,13.35
2023-03-17T07:43:38.581Z,13.18
2023-03-17T07:46:08.573Z,14.75
2023-03-17T07:48:40.840Z,8.43
2023-03-17T07:51:11.890Z,10.15
2023-03-17T07:53:39.706Z,9.63
2023-03-17T07:56:08.078Z,9.48
2023-03-17T07:58:36.121Z,8.48
2023-03-17T08:01:04.992Z,9.85
2023-03-17T08:03:34.410Z,6.63
2023-03-17T08:06:08.618Z,7.45
2023-03-17T08:08:37.011Z,7.07
2023-03-17T08:11:07.639Z,12.65
2023-03-17T08:13:35.827Z,9.68
2023-03-17T08:16:03.699Z,7.18
2023-03-17T08:18:32.028Z,5.97
2023-03-17T08:21:02.150Z,8.02
2023-03-17T08:23:30.047Z,5.90
2023-03-17T08:25:58.895Z,8.48
2023-03-17T08:28:27.139Z,7.75
2023-03-17T08:30:55.857Z,7.75
2023-03-17T08:33:23.780Z,6.85
2023-03-17T08:35:51.652Z,5.88
2023-03-17T08:38:20.786Z,8.63
2023-03-17T08:40:50.606Z,8.55
2023-03-17T08:43:18.677Z,7.80
2023-03-17T08:45:46.555Z,7.15
2023-03-17T08:48:14.382Z,8.88
2023-03-17T08:50:42.266Z,6.93
2023-03-17T08:53:10.361Z,7.55
2023-03-17T08:55:39.953Z,7.32
2023-03-17T08:58:07.766Z,10.23
2023-03-17T09:00:36.240Z,10.45
2023-03-17T09:03:04.168Z,9.05
2023-03-17T09:05:32.687Z,9.48
2023-03-17T09:08:00.959Z,9.90
2023-03-17T09:10:29.220Z,7.18
2023-03-17T09:13:03.162Z,8.15
2023-03-17T09:15:31.408Z,6.30
2023-03-17T09:17:59.306Z,7.43
2023-03-17T09:20:27.279Z,6.40
2023-03-17T09:22:56.437Z,9.07
2023-03-17T09:25:24.701Z,10.48
2023-03-17T09:27:52.700Z,6.82
2023-03-17T09:30:22.102Z,11.50
2023-03-17T09:32:49.942Z,7.30
2023-03-17T09:35:17.936Z,8.85
2023-03-17T09:37:45.623Z,9.07
2023-03-17T09:40:17.585Z,9.60
2023-03-17T09:42:58.196Z,9.10
2023-03-17T09:45:34.660Z,10.35
2023-03-17T09:48:23.754Z,11.43
2023-03-17T09:50:57.579Z,16.02
2023-03-17T09:53:34.277Z,10.95
2023-03-17T09:56:06.861Z,6.35
2023-03-17T09:58:35.608Z,6.72
2023-03-17T10:01:06.403Z,6.10
2023-03-17T10:03:35.229Z,8.18
2023-03-17T10:06:18.671Z,6.82
2023-03-17T10:08:55.067Z,9.65
2023-03-17T10:11:34.026Z,8.82
2023-03-17T10:14:04.527Z,8.98
2023-03-17T10:16:41.505Z,6.50
2023-03-17T10:19:22.373Z,9.45
2023-03-17T10:21:54.764Z,8.95
2023-03-17T10:24:24.507Z,8.55
2023-03-17T10:26:55.247Z,9.23
2023-03-17T10:29:24.865Z,10.40
2023-03-17T10:31:58.292Z,8.88
2023-03-17T10:34:29.752Z,14.27
2023-03-17T10:37:02.582Z,8.38
2023-03-17T10:39:32.717Z,7.25
2023-03-17T10:42:10.075Z,8.35
2023-03-17T10:44:43.885Z,10.68
2023-03-17T10:47:31.578Z,7.43
2023-03-17T10:50:04.767Z,6.90
2023-03-17T10:52:39.605Z,9.07
2023-03-17T10:55:10.640Z,8.60
2023-03-17T10:57:39.821Z,13.23
2023-03-17T11:00:19.873Z,5.65
2023-03-17T11:02:55.964Z,6.93
2023-03-17T11:05:26.534Z,7.28
2023-03-17T11:08:07.738Z,5.97
2023-03-17T11:10:38.583Z,9.82
2023-03-17T11:13:06.714Z,7.70
2023-03-17T11:15:37.522Z,8.32
2023-03-17T11:18:15.760Z,8.05
2023-03-17T11:20:51.182Z,10.18
2023-03-17T11:23:39.574Z,7.88
2023-03-17T11:26:18.943Z,7.72
2023-03-17T11:28:52.945Z,6.43
2023-03-17T11:31:27.984Z,12.65
2023-03-17T11:34:05.369Z,6.50
2023-03-17T11:36:46.045Z,6.43
2023-03-17T11:39:17.199Z,7.90
2023-03-17T11:42:06.924Z,8.02
2023-03-17T11:45:18.204Z,7.13
2023-03-17T11:48:00.960Z,8.80
2023-03-17T11:50:38.359Z,9.70
2023-03-17T11:53:18.829Z,7.63
2023-03-17T11:55:50.172Z,7.20
2023-03-17T11:58:28.587Z,7.22
2023-03-17T12:01:00.406Z,7.25
2023-03-17T12:03:34.430Z,10.43
2023-03-17T12:06:08.666Z,6.38
2023-03-17T12:08:40.927Z,8.85
2023-03-17T12:11:12.765Z,8.77
2023-03-17T12:13:45.552Z,9.03
2023-03-17T12:16:19.299Z,10.20
2023-03-17T12:18:55.825Z,7.28
2023-03-17T12:21:30.993Z,8.13
2023-03-17T12:24:03.035Z,7.20
2023-03-17T12:26:36.209Z,8.02
2023-03-17T12:29:10.487Z,8.55
2023-03-17T12:31:42.525Z,7.75
2023-03-17T12:34:20.377Z,9.18
2023-03-17T12:36:50.717Z,9.70
2023-03-17T12:39:22.944Z,7.32
2023-03-17T12:42:16.612Z,9.20
2023-03-17T12:45:15.974Z,8.88
2023-03-17T12:47:58.554Z,8.63
2023-03-17T12:50:45.934Z,10.77
2023-03-17T12:53:27.356Z,8.52
2023-03-17T12:55:58.938Z,8.15
2023-03-17T12:58:33.600Z,8.85
2023-03-17T13:01:10.747Z,8.60
2023-03-17T13:03:47.772Z,9.00
2023-03-17T13:06:21.258Z,8.93
2023-03-17T13:08:51.976Z,8.00
2023-03-17T13:11:27.312Z,13.57
2023-03-17T13:14:12.326Z,8.32
2023-03-17T13:16:41.799Z,8.25
2023-03-17T13:19:18.801Z,10.35
2023-03-17T13:21:51.848Z,12.80
2023-03-17T13:24:43.488Z,10.90
2023-03-17T13:27:13.901Z,10.35
2023-03-17T13:29:47.717Z,8.88
2023-03-17T13:32:39.729Z,11.15
2023-03-17T13:35:38.742Z,9.50
2023-03-17T13:38:30.509Z,10.00
2023-03-17T13:41:17.199Z,9.63
2023-03-17T13:44:03.151Z,7.60
2023-03-17T13:46:40.929Z,8.82
2023-03-17T13:49:22.460Z,7.35
2023-03-17T13:51:59.825Z,11.23
2023-03-17T13:54:34.312Z,11.63
2023-03-17T13:57:26.264Z,8.85
2023-03-17T14:00:17.725Z,8.60
2023-03-17T14:02:49.809Z,7.97
2023-03-17T14:05:25.439Z,10.18
2023-03-17T14:07:57.520Z,10.38
2023-03-17T14:10:27.418Z,9.18
2023-03-17T14:13:01.907Z,10.30
2023-03-17T14:15:33.827Z,10.38
2023-03-17T14:18:05.945Z,9.18
2023-03-17T14:20:33.853Z,8.50
2023-03-17T14:23:04.035Z,7.78
2023-03-17T14:25:34.955Z,10.95
2023-03-17T14:28:09.420Z,9.10
2023-03-17T14:30:38.686Z,10.05
2023-03-17T14:33:14.559Z,11.07
2023-03-17T14:35:44.294Z,11.10
2023-03-17T14:38:20.850Z,9.13
2023-03-17T14:40:49.086Z,9.82
2023-03-17T14:43:18.463Z,8.77
2023-03-17T14:45:51.370Z,8.93
2023-03-17T14:48:26.591Z,8.45
2023-03-17T14:50:56.463Z,11.10
2023-03-17T14:53:26.827Z,13.65
2023-03-17T14:55:54.788Z,11.00
2023-03-17T14:58:26.316Z,18.30
2023-03-17T15:00:58.357Z,8.27
2023-03-17T15:03:31.564Z,9.68
2023-03-17T15:06:08.635Z,7.38
2023-03-17T15:08:46.969Z,10.10
2023-03-17T15:11:21.346Z,11.93
2023-03-17T15:13:54.005Z,11.77
2023-03-17T15:18:59.129Z,9.70
2023-03-17T15:21:33.653Z,9.65
2023-03-17T15:24:06.207Z,8.90
2023-03-17T15:26:34.034Z,8.90
2023-03-17T15:29:03.196Z,9.93
2023-03-17T15:31:31.075Z,10.60
2023-03-17T15:33:59.585Z,10.80
2023-03-17T15:36:32.764Z,8.35
2023-03-17T15:39:01.585Z,11.43
2023-03-17T15:41:29.693Z,13.60
2023-03-17T15:43:57.543Z,11.95
2023-03-17T15:46:31.009Z,11.18
2023-03-17T15:48:59.257Z,11.73
2023-03-17T15:51:27.748Z,9.23
2023-03-17T15:53:55.462Z,12.35
2023-03-17T15:56:23.286Z,11.65
2023-03-17T15:58:52.686Z,11.85
2023-03-17T16:01:21.483Z,10.23
2023-03-17T16:03:51.079Z,11.30
2023-03-17T16:06:21.441Z,11.07
2023-03-17T16:08:50.075Z,12.73
2023-03-17T16:11:19.520Z,10.35
2023-03-17T16:13:48.653Z,9.88
2023-03-17T16:16:21.421Z,12.38
2023-03-17T16:18:52.602Z,8.82
2023-03-17T16:21:21.340Z,10.20
2023-03-17T16:23:50.428Z,10.85
2023-03-17T16:26:18.568Z,11.07
2023-03-17T16:28:47.809Z,10.43
2023-03-17T16:31:25.203Z,17.42
2023-03-17T16:33:55.224Z,8.48
2023-03-17T16:36:25.534Z,8.65
2023-03-17T16:38:53.474Z,9.48
2023-03-17T16:41:24.087Z,10.00
2023-03-17T16:43:55.266Z,10.43
2023-03-17T16:46:23.725Z,11.52
2023-03-17T16:48:51.909Z,11.20
2023-03-17T16:51:21.200Z,14.15
2023-03-17T16:53:49.462Z,14.27
2023-03-17T16:56:19.535Z,13.32
2023-03-17T16:58:48.246Z,14.32
2023-03-17T17:01:19.302Z,16.65
2023-03-17T17:03:47.834Z,21.30
2023-03-17T17:06:16.274Z,22.88
2023-03-17T17:08:47.253Z,17.08
2023-03-17T17:11:16.077Z,24.58
2023-03-17T17:13:44.926Z,15.10
2023-03-17T17:16:22.059Z,14.40
2023-03-17T17:18:50.405Z,15.52
2023-03-17T17:21:18.274Z,12.73
2023-03-17T17:23:47.834Z,16.23
2023-03-17T17:26:15.945Z,16.30
2023-03-17T17:28:43.801Z,20.02
2023-03-17T17:31:12.293Z,21.40
2023-03-17T17:33:40.704Z,22.67
2023-03-17T17:36:14.606Z,24.40
2023-03-17T17:38:44.506Z,22.52
2023-03-17T17:41:17.022Z,21.13
2023-03-17T17:46:17.612Z,24.25
2023-03-17T17:48:45.889Z,30.83
2023-03-17T17:51:13.805Z,32.47
2023-03-17T17:53:42.010Z,22.27
2023-03-17T17:56:15.815Z,18.67
2023-03-17T17:58:44.171Z,23.05
2023-03-17T18:01:13.599Z,25.83
2023-03-17T18:03:42.962Z,24.10
2023-03-17T18:06:11.727Z,22.98
2023-03-17T18:08:40.507Z,19.45
2023-03-17T18:11:08.732Z,19.33
2023-03-17T18:13:39.040Z,21.85
2023-03-17T18:16:09.974Z,22.45
2023-03-17T18:18:40.681Z,24.77
2023-03-17T18:21:08.551Z,22.25
2023-03-17T18:23:37.344Z,21.50
2023-03-17T18:26:06.673Z,15.38
2023-03-17T18:28:34.904Z,18.48
2023-03-17T18:31:09.596Z,13.18
2023-03-17T18:33:37.776Z,16.10
2023-03-17T18:36:06.797Z,17.58
2023-03-17T18:38:34.782Z,18.27
2023-03-17T18:41:04.083Z,14.95
2023-03-17T18:43:31.930Z,14.95
2023-03-17T18:46:00.129Z,19.95
2023-03-17T18:48:29.622Z,18.95
2023-03-17T18:50:57.742Z,22.90
2023-03-17T18:53:26.116Z,17.58
2023-03-17T18:55:54.042Z,18.65
2023-03-17T18:58:23.530Z,16.27
2023-03-17T19:00:53.318Z,16.05
2023-03-17T19:03:21.397Z,18.35
2023-03-17T19:05:51.613Z,16.25
2023-03-17T19:08:19.781Z,11.60
2023-03-17T19:10:48.277Z,18.00
2023-03-17T19:13:17.034Z,18.95
2023-03-17T19:15:44.817Z,18.05
2023-03-17T19:18:12.602Z,17.33
2023-03-17T19:20:40.903Z,20.23
2023-03-17T19:23:10.126Z,25.38
2023-03-17T19:25:38.083Z,23.55
2023-03-17T19:28:06.419Z,22.40
2023-03-17T19:30:34.868Z,25.30
2023-03-17T19:33:03.057Z,27.83
2023-03-17T19:35:30.922Z,26.98
2023-03-17T19:37:59.010Z,25.67
2023-03-17T19:40:28.388Z,28.50
2023-03-17T19:42:56.269Z,47.13
2023-03-17T19:45:26.132Z,48.05
2023-03-17T19:47:54.290Z,64.40
2023-03-17T19:50:22.132Z,41.03
2023-03-17T19:52:53.020Z,40.85
2023-03-17T19:55:21.726Z,41.88
2023-03-17T19:57:51.732Z,39.60
2023-03-17T20:00:20.966Z,32.50
2023-03-17T20:02:52.114Z,35.53
2023-03-17T20:05:20.019Z,24.85
2023-03-17T20:07:48.390Z,26.38
2023-03-17T20:10:16.160Z,23.65
2023-03-17T20:12:45.935Z,32.13
2023-03-17T20:15:16.464Z,29.23
2023-03-17T20:17:44.293Z,21.73
2023-03-17T20:20:14.517Z,22.90
2023-03-17T20:22:43.668Z,19.35
2023-03-17T20:25:12.492Z,21.88
2023-03-17T20:27:43.577Z,23.65
2023-03-17T20:30:13.152Z,23.77
2023-03-17T20:32:42.547Z,29.92
2023-03-17T20:35:11.130Z,22.77
2023-03-17T20:37:39.517Z,24.17
2023-03-17T20:40:09.934Z,24.30
2023-03-17T20:42:37.774Z,22.48
2023-03-17T20:45:07.463Z,28.23
2023-03-17T20:47:35.535Z,21.73
2023-03-17T20:50:06.282Z,22.70
2023-03-17T20:52:34.099Z,25.23
2023-03-17T20:55:02.565Z,22.08
2023-03-17T20:57:30.377Z,14.75
2023-03-17T20:59:58.240Z,17.58
2023-03-17T21:02:26.445Z,14.38
2023-03-17T21:04:54.249Z,17.15
2023-03-17T21:07:23.613Z,17.70
2023-03-17T21:09:52.020Z,16.27
2023-03-17T21:12:21.382Z,16.50
2023-03-17T21:14:49.349Z,17.23
2023-03-17T21:17:18.370Z,17.80
2023-03-17T21:19:47.413Z,17.05
2023-03-17T21:22:16.056Z,16.13
2023-03-17T21:24:45.342Z,18.58
2023-03-17T21:27:13.843Z,21.75
2023-03-17T21:29:41.687Z,17.55
2023-03-17T21:32:09.689Z,19.40
2023-03-17T21:34:38.091Z,21.30
2023-03-17T21:37:06.181Z,16.13
2023-03-17T21:39:34.064Z,19.58
2023-03-17T21:42:03.793Z,19.30
2023-03-17T21:44:32.414Z,18.38
2023-03-17T21:47:02.591Z,18.55
2023-03-17T21:49:30.404Z,17.27
2023-03-17T21:51:58.250Z,14.60
2023-03-17T21:54:26.098Z,18.45
2023-03-17T21:56:53.986Z,15.80
2023-03-17T21:59:23.600Z,20.25
2023-03-17T22:01:53.073Z,17.00
2023-03-17T22:04:21.153Z,16.60
2023-03-17T22:06:49.006Z,15.45
2023-03-17T22:09:19.134Z,13.38
2023-03-17T22:11:47.059Z,17.48
2023-03-17T22:14:19.888Z,13.32
2023-03-17T22:16:49.798Z,15.23
2023-03-17T22:19:20.983Z,16.42
2023-03-17T22:21:49.073Z,15.77
2023-03-17T22:24:17.339Z,15.88
2023-03-17T22:26:45.239Z,15.25
2023-03-17T22:29:13.593Z,14.52
2023-03-17T22:31:41.984Z,15.65
2023-03-17T22:34:11.262Z,22.65
2023-03-17T22:36:39.038Z,31.25
2023-03-17T22:39:08.836Z,22.58
2023-03-17T22:41:36.743Z,24.88
2023-03-17T22:44:05.591Z,33.67
2023-03-17T22:46:33.412Z,22.73
2023-03-17T22:49:01.218Z,20.63
2023-03-17T22:51:30.594Z,23.63
2023-03-17T22:53:58.804Z,24.00
2023-03-17T22:56:26.823Z,23.90
2023-03-17T22:58:55.757Z,21.45
2023-03-17T23:01:25.817Z,25.90
2023-03-17T23:03:54.319Z,23.50
2023-03-17T23:06:22.579Z,22.20
2023-03-17T23:08:52.203Z,19.77
2023-03-17T23:11:22.226Z,23.50
2023-03-17T23:13:51.420Z,25.52
2023-03-17T23:16:20.277Z,25.33
2023-03-17T23:18:48.117Z,21.67
2023-03-17T23:21:21.921Z,25.08
2023-03-17T23:23:51.459Z,18.48
2023-03-17T23:26:19.361Z,20.30
2023-03-17T23:28:47.604Z,19.67
2023-03-17T23:31:15.979Z,15.10
2023-03-17T23:33:43.903Z,17.02
2023-03-17T23:36:14.064Z,15.52
2023-03-17T23:38:42.739Z,19.52
2023-03-17T23:41:13.484Z,18.42
2023-03-17T23:43:41.756Z,17.15
2023-03-17T23:46:09.618Z,18.50
2023-03-17T23:48:38.058Z,20.88
2023-03-17T23:51:08.030Z,18.45
2023-03-17T23:53:35.798Z,18.25
2023-03-17T23:56:05.438Z,18.02
2023-03-17T23:58:34.896Z,18.45
